Pagina principale
METAR-TAF:

METAR-TAF

Aeroporti :

Wiener Neustadt, Austria

latitudine: 47-50-36N, longitudine: 016-15-29E, altezza: 272 m

Osservazione

Il bollettino è stato emesso 10 ore e 57 minuti fa, alle 19:00 UTC
Vento 2 kt da direzioni variabili
Temperature
Pressione

METAR: LOAN 021900Z VRB02KT 40KM FEW040CU

Ora: 07:57 (05:57 UTC)

Previsione

Il bollettino è stato emesso 18 ore e 32 minuti fa, alle 11:25 UTC
Previsione valida dal 02 alle 12 UTC al 02 alle 21 UTC
Vento 13 kt da ovest/nord-ovest
Visibilità 10 km o più
Poco nuvoloso ad un'altezza di 4500 ft
Temporaneamente
dal 02 alle 12 UTC al 02 alle 17 UTC
Poco nuvoloso ad un'altezza di 5000 ft, Cumulonembo.
Evoluzione graduale
dal 02 alle 17 UTC al 02 alle 19 UTC
Vento 4 kt da direzioni variabili

TAF: LOAN 021125Z 0212/0221 29013KT 9999 FEW045 TEMPO 0212/0217 FEW050CB BECMG 0217/0219 VRB04KT

Osservazioni e previsioni meteorologiche di più di 4000 aeroporti (messaggi METAR e TAF).

Le stazioni disponibili sono rappresentate dai dischi gialli e rossi sulla carta.

Puntare il mouse per vedere il nome della stazione.

Clicca sopra per visualizzare le osservazioni e previsioni meteorologiche.

Per cambiare la mappa : fare clic sui pulsanti verdi con una croce nera per ingrandire, il pulsante verde con un trattino per diminuire, o sulla freccia verde per le mappe adiacenti.


METAR-TAF: